sensor_id;sensor_type;location;lat;lon;timestamp;P1;durP1;ratioP1;P2;durP2;ratioP2
63945;SDS011;50122;56.330;43.838;2023-04-24T00:01:21;21.67;;;9.18;;
63945;SDS011;50122;56.330;43.838;2023-04-24T00:03:47;18.63;;;8.48;;
63945;SDS011;50122;56.330;43.838;2023-04-24T00:06:15;20.48;;;8.77;;
63945;SDS011;50122;56.330;43.838;2023-04-24T00:08:43;20.50;;;9.23;;
63945;SDS011;50122;56.330;43.838;2023-04-24T00:11:09;17.30;;;9.20;;
63945;SDS011;50122;56.330;43.838;2023-04-24T00:13:37;18.15;;;9.88;;
63945;SDS011;50122;56.330;43.838;2023-04-24T00:16:04;291.27;;;20.30;;
63945;SDS011;50122;56.330;43.838;2023-04-24T00:18:31;43.45;;;9.73;;
63945;SDS011;50122;56.330;43.838;2023-04-24T00:20:58;22.63;;;8.45;;
63945;SDS011;50122;56.330;43.838;2023-04-24T00:23:25;17.55;;;8.63;;
63945;SDS011;50122;56.330;43.838;2023-04-24T00:25:51;16.67;;;8.82;;
63945;SDS011;50122;56.330;43.838;2023-04-24T00:28:20;14.50;;;7.97;;
63945;SDS011;50122;56.330;43.838;2023-04-24T00:30:47;18.23;;;8.55;;
63945;SDS011;50122;56.330;43.838;2023-04-24T00:33:14;15.95;;;8.55;;
63945;SDS011;50122;56.330;43.838;2023-04-24T00:35:41;24.52;;;8.88;;
63945;SDS011;50122;56.330;43.838;2023-04-24T00:38:08;19.95;;;8.50;;
63945;SDS011;50122;56.330;43.838;2023-04-24T00:40:34;20.70;;;8.23;;
63945;SDS011;50122;56.330;43.838;2023-04-24T00:43:01;17.98;;;9.75;;
63945;SDS011;50122;56.330;43.838;2023-04-24T00:45:28;23.63;;;10.15;;
63945;SDS011;50122;56.330;43.838;2023-04-24T00:47:54;25.38;;;11.95;;
63945;SDS011;50122;56.330;43.838;2023-04-24T00:50:23;24.77;;;12.18;;
63945;SDS011;50122;56.330;43.838;2023-04-24T00:52:50;23.15;;;11.45;;
63945;SDS011;50122;56.330;43.838;2023-04-24T00:55:17;27.13;;;11.02;;
63945;SDS011;50122;56.330;43.838;2023-04-24T00:57:44;20.75;;;11.02;;
63945;SDS011;50122;56.330;43.838;2023-04-24T01:00:11;23.42;;;12.25;;
63945;SDS011;50122;56.330;43.838;2023-04-24T01:02:43;23.70;;;12.82;;
63945;SDS011;50122;56.330;43.838;2023-04-24T01:05:12;22.10;;;12.25;;
63945;SDS011;50122;56.330;43.838;2023-04-24T01:07:41;21.98;;;12.02;;
63945;SDS011;50122;56.330;43.838;2023-04-24T01:10:10;22.25;;;11.02;;
63945;SDS011;50122;56.330;43.838;2023-04-24T01:12:40;26.13;;;11.55;;
63945;SDS011;50122;56.330;43.838;2023-04-24T01:15:07;20.75;;;10.55;;
63945;SDS011;50122;56.330;43.838;2023-04-24T01:17:35;24.08;;;10.15;;
63945;SDS011;50122;56.330;43.838;2023-04-24T01:20:03;21.15;;;10.38;;
63945;SDS011;50122;56.330;43.838;2023-04-24T01:22:34;19.70;;;10.25;;
63945;SDS011;50122;56.330;43.838;2023-04-24T01:25:01;23.50;;;10.50;;
63945;SDS011;50122;56.330;43.838;2023-04-24T01:27:29;21.48;;;10.23;;
63945;SDS011;50122;56.330;43.838;2023-04-24T01:29:58;17.95;;;9.52;;
63945;SDS011;50122;56.330;43.838;2023-04-24T01:32:25;20.20;;;9.88;;
63945;SDS011;50122;56.330;43.838;2023-04-24T01:34:54;21.52;;;9.77;;
63945;SDS011;50122;56.330;43.838;2023-04-24T01:37:21;18.50;;;9.20;;
63945;SDS011;50122;56.330;43.838;2023-04-24T01:39:48;23.15;;;9.77;;
63945;SDS011;50122;56.330;43.838;2023-04-24T01:42:14;15.65;;;9.70;;
63945;SDS011;50122;56.330;43.838;2023-04-24T01:44:42;17.92;;;9.63;;
63945;SDS011;50122;56.330;43.838;2023-04-24T01:47:09;17.75;;;9.45;;
63945;SDS011;50122;56.330;43.838;2023-04-24T01:49:37;18.17;;;9.07;;
63945;SDS011;50122;56.330;43.838;2023-04-24T01:52:05;15.98;;;9.52;;
63945;SDS011;50122;56.330;43.838;2023-04-24T01:54:32;18.05;;;9.50;;
63945;SDS011;50122;56.330;43.838;2023-04-24T01:56:58;21.33;;;10.73;;
63945;SDS011;50122;56.330;43.838;2023-04-24T01:59:27;16.50;;;9.32;;
63945;SDS011;50122;56.330;43.838;2023-04-24T02:01:55;15.02;;;9.43;;
63945;SDS011;50122;56.330;43.838;2023-04-24T02:04:21;17.27;;;9.65;;
63945;SDS011;50122;56.330;43.838;2023-04-24T02:06:48;15.80;;;9.38;;
63945;SDS011;50122;56.330;43.838;2023-04-24T02:09:15;19.05;;;10.07;;
63945;SDS011;50122;56.330;43.838;2023-04-24T02:11:43;17.20;;;8.98;;
63945;SDS011;50122;56.330;43.838;2023-04-24T02:14:10;16.73;;;8.68;;
63945;SDS011;50122;56.330;43.838;2023-04-24T02:16:37;16.60;;;8.48;;
63945;SDS011;50122;56.330;43.838;2023-04-24T02:19:04;17.63;;;8.55;;
63945;SDS011;50122;56.330;43.838;2023-04-24T02:21:31;16.15;;;8.25;;
63945;SDS011;50122;56.330;43.838;2023-04-24T02:23:59;15.82;;;8.23;;
63945;SDS011;50122;56.330;43.838;2023-04-24T02:26:25;16.33;;;8.52;;
63945;SDS011;50122;56.330;43.838;2023-04-24T02:28:52;16.65;;;8.60;;
63945;SDS011;50122;56.330;43.838;2023-04-24T02:31:19;16.42;;;8.52;;
63945;SDS011;50122;56.330;43.838;2023-04-24T02:33:49;18.38;;;8.77;;
63945;SDS011;50122;56.330;43.838;2023-04-24T02:36:15;18.05;;;9.25;;
63945;SDS011;50122;56.330;43.838;2023-04-24T02:38:42;14.95;;;8.30;;
63945;SDS011;50122;56.330;43.838;2023-04-24T02:41:09;17.48;;;8.57;;
63945;SDS011;50122;56.330;43.838;2023-04-24T02:43:36;16.17;;;10.18;;
63945;SDS011;50122;56.330;43.838;2023-04-24T02:46:02;18.92;;;9.85;;
63945;SDS011;50122;56.330;43.838;2023-04-24T02:48:29;17.90;;;10.93;;
63945;SDS011;50122;56.330;43.838;2023-04-24T02:50:56;23.70;;;10.55;;
63945;SDS011;50122;56.330;43.838;2023-04-24T02:53:23;22.55;;;10.63;;
63945;SDS011;50122;56.330;43.838;2023-04-24T02:55:50;15.88;;;9.38;;
63945;SDS011;50122;56.330;43.838;2023-04-24T02:58:17;16.70;;;8.50;;
63945;SDS011;50122;56.330;43.838;2023-04-24T03:00:46;11.77;;;7.65;;
63945;SDS011;50122;56.330;43.838;2023-04-24T03:03:13;13.95;;;7.18;;
63945;SDS011;50122;56.330;43.838;2023-04-24T03:05:41;10.60;;;6.28;;
63945;SDS011;50122;56.330;43.838;2023-04-24T03:08:08;12.20;;;5.95;;
63945;SDS011;50122;56.330;43.838;2023-04-24T03:10:34;9.95;;;5.63;;
63945;SDS011;50122;56.330;43.838;2023-04-24T03:13:01;14.57;;;5.88;;
63945;SDS011;50122;56.330;43.838;2023-04-24T03:15:28;23.90;;;6.20;;
63945;SDS011;50122;56.330;43.838;2023-04-24T03:17:56;22.48;;;6.18;;
63945;SDS011;50122;56.330;43.838;2023-04-24T03:20:22;22.15;;;6.10;;
63945;SDS011;50122;56.330;43.838;2023-04-24T03:22:49;23.65;;;6.00;;
63945;SDS011;50122;56.330;43.838;2023-04-24T03:25:17;15.25;;;5.70;;
63945;SDS011;50122;56.330;43.838;2023-04-24T03:27:43;25.33;;;5.47;;
63945;SDS011;50122;56.330;43.838;2023-04-24T03:30:11;21.70;;;5.78;;
63945;SDS011;50122;56.330;43.838;2023-04-24T03:32:46;18.60;;;5.83;;
63945;SDS011;50122;56.330;43.838;2023-04-24T03:35:13;22.00;;;5.85;;
63945;SDS011;50122;56.330;43.838;2023-04-24T03:37:39;28.58;;;5.40;;
63945;SDS011;50122;56.330;43.838;2023-04-24T03:40:06;28.42;;;5.40;;
63945;SDS011;50122;56.330;43.838;2023-04-24T03:42:34;10.63;;;4.53;;
63945;SDS011;50122;56.330;43.838;2023-04-24T03:45:04;14.20;;;4.28;;
63945;SDS011;50122;56.330;43.838;2023-04-24T03:47:31;6.97;;;3.63;;
63945;SDS011;50122;56.330;43.838;2023-04-24T03:49:58;20.02;;;4.15;;
63945;SDS011;50122;56.330;43.838;2023-04-24T03:52:28;12.13;;;3.83;;
63945;SDS011;50122;56.330;43.838;2023-04-24T03:54:55;54.35;;;5.70;;
63945;SDS011;50122;56.330;43.838;2023-04-24T03:57:22;75.70;;;6.82;;
63945;SDS011;50122;56.330;43.838;2023-04-24T03:59:49;13.77;;;3.80;;
63945;SDS011;50122;56.330;43.838;2023-04-24T04:02:16;15.77;;;4.07;;
63945;SDS011;50122;56.330;43.838;2023-04-24T04:04:43;9.85;;;3.30;;
63945;SDS011;50122;56.330;43.838;2023-04-24T04:07:10;12.40;;;3.30;;
63945;SDS011;50122;56.330;43.838;2023-04-24T04:09:37;9.35;;;3.42;;
63945;SDS011;50122;56.330;43.838;2023-04-24T04:12:04;25.77;;;4.53;;
63945;SDS011;50122;56.330;43.838;2023-04-24T04:14:31;8.05;;;3.13;;
63945;SDS011;50122;56.330;43.838;2023-04-24T04:16:58;7.82;;;3.35;;
63945;SDS011;50122;56.330;43.838;2023-04-24T04:19:24;8.60;;;3.30;;
63945;SDS011;50122;56.330;43.838;2023-04-24T04:21:51;11.40;;;3.63;;
63945;SDS011;50122;56.330;43.838;2023-04-24T04:24:19;9.50;;;3.53;;
63945;SDS011;50122;56.330;43.838;2023-04-24T04:26:50;18.88;;;3.42;;
63945;SDS011;50122;56.330;43.838;2023-04-24T04:29:17;10.50;;;3.45;;
63945;SDS011;50122;56.330;43.838;2023-04-24T17:56:22;29.67;;;8.23;;
63945;SDS011;50122;56.330;43.838;2023-04-24T17:58:51;93.10;;;11.27;;
63945;SDS011;50122;56.330;43.838;2023-04-24T18:01:18;95.13;;;11.57;;
63945;SDS011;50122;56.330;43.838;2023-04-24T18:03:45;47.30;;;9.60;;
63945;SDS011;50122;56.330;43.838;2023-04-24T18:06:14;17.00;;;5.85;;
63945;SDS011;50122;56.330;43.838;2023-04-24T18:08:42;13.23;;;4.53;;
63945;SDS011;50122;56.330;43.838;2023-04-24T18:11:09;15.85;;;4.47;;
63945;SDS011;50122;56.330;43.838;2023-04-24T18:13:36;7.80;;;4.07;;
63945;SDS011;50122;56.330;43.838;2023-04-24T18:16:06;10.50;;;5.13;;
63945;SDS011;50122;56.330;43.838;2023-04-24T18:18:33;18.10;;;5.50;;
63945;SDS011;50122;56.330;43.838;2023-04-24T18:20:59;23.27;;;5.78;;
63945;SDS011;50122;56.330;43.838;2023-04-24T18:23:27;58.85;;;8.25;;
63945;SDS011;50122;56.330;43.838;2023-04-24T18:25:53;32.67;;;9.73;;
63945;SDS011;50122;56.330;43.838;2023-04-24T18:28:22;93.40;;;12.43;;
63945;SDS011;50122;56.330;43.838;2023-04-24T18:30:49;63.97;;;11.40;;
63945;SDS011;50122;56.330;43.838;2023-04-24T18:33:16;36.35;;;12.02;;
63945;SDS011;50122;56.330;43.838;2023-04-24T18:35:44;37.35;;;11.23;;
63945;SDS011;50122;56.330;43.838;2023-04-24T18:38:10;35.33;;;11.43;;
63945;SDS011;50122;56.330;43.838;2023-04-24T18:40:37;46.17;;;11.98;;
63945;SDS011;50122;56.330;43.838;2023-04-24T18:43:05;29.08;;;11.75;;
63945;SDS011;50122;56.330;43.838;2023-04-24T18:45:32;23.25;;;8.70;;
63945;SDS011;50122;56.330;43.838;2023-04-24T18:51:13;154.20;;;12.35;;
63945;SDS011;50122;56.330;43.838;2023-04-24T18:53:39;10.85;;;4.68;;
63945;SDS011;50122;56.330;43.838;2023-04-24T18:56:07;12.77;;;4.65;;
63945;SDS011;50122;56.330;43.838;2023-04-24T18:58:33;11.23;;;4.38;;
63945;SDS011;50122;56.330;43.838;2023-04-24T19:01:00;7.78;;;3.70;;
63945;SDS011;50122;56.330;43.838;2023-04-24T19:03:27;8.35;;;3.47;;
63945;SDS011;50122;56.330;43.838;2023-04-24T19:05:55;8.80;;;3.13;;
63945;SDS011;50122;56.330;43.838;2023-04-24T19:08:21;9.90;;;3.33;;
63945;SDS011;50122;56.330;43.838;2023-04-24T19:10:49;5.78;;;3.08;;
63945;SDS011;50122;56.330;43.838;2023-04-24T19:13:16;10.32;;;3.45;;
63945;SDS011;50122;56.330;43.838;2023-04-24T19:15:43;7.95;;;2.90;;
63945;SDS011;50122;56.330;43.838;2023-04-24T19:18:09;10.52;;;3.17;;
63945;SDS011;50122;56.330;43.838;2023-04-24T19:20:36;8.60;;;3.28;;
63945;SDS011;50122;56.330;43.838;2023-04-24T19:23:03;5.65;;;2.92;;
63945;SDS011;50122;56.330;43.838;2023-04-24T19:25:31;5.45;;;2.67;;
63945;SDS011;50122;56.330;43.838;2023-04-24T19:27:58;7.35;;;3.03;;
63945;SDS011;50122;56.330;43.838;2023-04-24T19:30:24;7.55;;;3.08;;
63945;SDS011;50122;56.330;43.838;2023-04-24T19:32:52;9.32;;;3.00;;
63945;SDS011;50122;56.330;43.838;2023-04-24T19:35:18;9.88;;;3.15;;
63945;SDS011;50122;56.330;43.838;2023-04-24T19:37:45;10.38;;;4.18;;
63945;SDS011;50122;56.330;43.838;2023-04-24T19:40:12;8.82;;;2.95;;
63945;SDS011;50122;56.330;43.838;2023-04-24T19:42:39;7.05;;;2.70;;
63945;SDS011;50122;56.330;43.838;2023-04-24T19:45:10;23.02;;;3.40;;
63945;SDS011;50122;56.330;43.838;2023-04-24T19:47:38;6.82;;;2.95;;
63945;SDS011;50122;56.330;43.838;2023-04-24T19:50:06;8.68;;;3.15;;
63945;SDS011;50122;56.330;43.838;2023-04-24T19:52:33;5.38;;;2.65;;
63945;SDS011;50122;56.330;43.838;2023-04-24T19:55:03;8.00;;;3.40;;
63945;SDS011;50122;56.330;43.838;2023-04-24T19:57:31;6.22;;;3.47;;
63945;SDS011;50122;56.330;43.838;2023-04-24T19:59:57;14.55;;;4.63;;
63945;SDS011;50122;56.330;43.838;2023-04-24T20:02:24;10.13;;;3.70;;
63945;SDS011;50122;56.330;43.838;2023-04-24T20:04:51;10.40;;;3.92;;
63945;SDS011;50122;56.330;43.838;2023-04-24T20:07:18;11.70;;;3.85;;
63945;SDS011;50122;56.330;43.838;2023-04-24T20:09:45;7.82;;;3.83;;
63945;SDS011;50122;56.330;43.838;2023-04-24T20:12:12;7.53;;;3.90;;
63945;SDS011;50122;56.330;43.838;2023-04-24T20:14:38;7.22;;;3.70;;
63945;SDS011;50122;56.330;43.838;2023-04-24T20:17:08;34.75;;;4.63;;
63945;SDS011;50122;56.330;43.838;2023-04-24T20:19:35;17.90;;;4.40;;
63945;SDS011;50122;56.330;43.838;2023-04-24T20:22:02;17.63;;;4.93;;
63945;SDS011;50122;56.330;43.838;2023-04-24T20:24:30;13.82;;;4.95;;
63945;SDS011;50122;56.330;43.838;2023-04-24T20:26:56;9.65;;;3.83;;
63945;SDS011;50122;56.330;43.838;2023-04-24T20:29:23;13.10;;;4.60;;
63945;SDS011;50122;56.330;43.838;2023-04-24T20:31:50;7.35;;;3.80;;
63945;SDS011;50122;56.330;43.838;2023-04-24T20:34:17;7.82;;;3.63;;
63945;SDS011;50122;56.330;43.838;2023-04-24T20:36:43;13.27;;;3.90;;
63945;SDS011;50122;56.330;43.838;2023-04-24T20:39:15;11.55;;;3.78;;
63945;SDS011;50122;56.330;43.838;2023-04-24T20:41:41;8.52;;;3.60;;
63945;SDS011;50122;56.330;43.838;2023-04-24T20:44:09;9.77;;;3.95;;
63945;SDS011;50122;56.330;43.838;2023-04-24T20:46:37;9.25;;;3.83;;
63945;SDS011;50122;56.330;43.838;2023-04-24T20:49:03;13.77;;;3.53;;
63945;SDS011;50122;56.330;43.838;2023-04-24T20:51:30;8.98;;;2.95;;
63945;SDS011;50122;56.330;43.838;2023-04-24T20:53:58;6.25;;;3.30;;
63945;SDS011;50122;56.330;43.838;2023-04-24T20:56:24;12.38;;;3.55;;
63945;SDS011;50122;56.330;43.838;2023-04-24T20:58:52;7.82;;;3.00;;
63945;SDS011;50122;56.330;43.838;2023-04-24T21:01:22;8.98;;;3.47;;
63945;SDS011;50122;56.330;43.838;2023-04-24T21:03:49;6.85;;;3.35;;
63945;SDS011;50122;56.330;43.838;2023-04-24T21:06:17;8.88;;;3.50;;
63945;SDS011;50122;56.330;43.838;2023-04-24T21:08:46;8.00;;;3.60;;
63945;SDS011;50122;56.330;43.838;2023-04-24T21:11:12;9.38;;;3.42;;
63945;SDS011;50122;56.330;43.838;2023-04-24T21:13:39;8.90;;;3.65;;
63945;SDS011;50122;56.330;43.838;2023-04-24T21:16:05;11.88;;;3.95;;
63945;SDS011;50122;56.330;43.838;2023-04-24T21:18:33;6.72;;;3.75;;
63945;SDS011;50122;56.330;43.838;2023-04-24T21:20:59;6.95;;;3.53;;
63945;SDS011;50122;56.330;43.838;2023-04-24T21:23:26;8.77;;;3.60;;
63945;SDS011;50122;56.330;43.838;2023-04-24T21:25:52;9.05;;;3.95;;
63945;SDS011;50122;56.330;43.838;2023-04-24T21:28:19;62.60;;;5.68;;
63945;SDS011;50122;56.330;43.838;2023-04-24T21:30:47;23.05;;;4.45;;
63945;SDS011;50122;56.330;43.838;2023-04-24T21:33:13;10.05;;;4.43;;
63945;SDS011;50122;56.330;43.838;2023-04-24T21:35:40;12.55;;;5.05;;
63945;SDS011;50122;56.330;43.838;2023-04-24T21:38:07;16.00;;;4.90;;
63945;SDS011;50122;56.330;43.838;2023-04-24T21:40:34;9.98;;;4.43;;
63945;SDS011;50122;56.330;43.838;2023-04-24T21:43:00;14.90;;;4.68;;
63945;SDS011;50122;56.330;43.838;2023-04-24T21:45:27;13.23;;;4.65;;
63945;SDS011;50122;56.330;43.838;2023-04-24T21:47:54;10.95;;;5.45;;
63945;SDS011;50122;56.330;43.838;2023-04-24T21:50:21;11.80;;;4.35;;
63945;SDS011;50122;56.330;43.838;2023-04-24T21:52:49;10.55;;;4.07;;
63945;SDS011;50122;56.330;43.838;2023-04-24T21:55:15;6.53;;;3.17;;
63945;SDS011;50122;56.330;43.838;2023-04-24T21:57:46;9.32;;;3.42;;
63945;SDS011;50122;56.330;43.838;2023-04-24T22:00:13;6.03;;;2.92;;
63945;SDS011;50122;56.330;43.838;2023-04-24T22:02:40;8.30;;;3.35;;
63945;SDS011;50122;56.330;43.838;2023-04-24T22:05:08;10.07;;;3.33;;
63945;SDS011;50122;56.330;43.838;2023-04-24T22:07:41;6.88;;;2.95;;
63945;SDS011;50122;56.330;43.838;2023-04-24T22:10:15;6.75;;;2.92;;
63945;SDS011;50122;56.330;43.838;2023-04-24T22:12:42;6.47;;;3.10;;
63945;SDS011;50122;56.330;43.838;2023-04-24T22:15:09;10.77;;;3.38;;
63945;SDS011;50122;56.330;43.838;2023-04-24T22:17:36;6.40;;;3.10;;
63945;SDS011;50122;56.330;43.838;2023-04-24T22:20:04;7.40;;;3.08;;
63945;SDS011;50122;56.330;43.838;2023-04-24T22:22:33;7.18;;;3.20;;
63945;SDS011;50122;56.330;43.838;2023-04-24T22:25:00;9.18;;;3.22;;
63945;SDS011;50122;56.330;43.838;2023-04-24T22:27:27;9.43;;;3.13;;
63945;SDS011;50122;56.330;43.838;2023-04-24T22:29:53;5.25;;;3.25;;
63945;SDS011;50122;56.330;43.838;2023-04-24T22:32:20;7.40;;;3.30;;
63945;SDS011;50122;56.330;43.838;2023-04-24T22:34:47;7.90;;;3.60;;
63945;SDS011;50122;56.330;43.838;2023-04-24T22:37:13;7.82;;;3.40;;
63945;SDS011;50122;56.330;43.838;2023-04-24T22:39:41;8.45;;;3.90;;
63945;SDS011;50122;56.330;43.838;2023-04-24T22:42:07;11.60;;;3.72;;
63945;SDS011;50122;56.330;43.838;2023-04-24T22:44:34;7.38;;;3.60;;
63945;SDS011;50122;56.330;43.838;2023-04-24T22:47:01;8.30;;;3.60;;
63945;SDS011;50122;56.330;43.838;2023-04-24T22:49:34;9.90;;;3.67;;
63945;SDS011;50122;56.330;43.838;2023-04-24T22:52:01;9.25;;;4.13;;
63945;SDS011;50122;56.330;43.838;2023-04-24T22:54:30;10.65;;;4.20;;
63945;SDS011;50122;56.330;43.838;2023-04-24T22:56:59;18.38;;;4.85;;
63945;SDS011;50122;56.330;43.838;2023-04-24T22:59:26;8.43;;;4.15;;
63945;SDS011;50122;56.330;43.838;2023-04-24T23:01:53;10.27;;;4.40;;
63945;SDS011;50122;56.330;43.838;2023-04-24T23:04:20;9.45;;;3.50;;
63945;SDS011;50122;56.330;43.838;2023-04-24T23:06:47;6.93;;;3.58;;
63945;SDS011;50122;56.330;43.838;2023-04-24T23:09:14;9.38;;;3.90;;
63945;SDS011;50122;56.330;43.838;2023-04-24T23:11:41;6.80;;;3.90;;
63945;SDS011;50122;56.330;43.838;2023-04-24T23:14:08;7.18;;;3.70;;
63945;SDS011;50122;56.330;43.838;2023-04-24T23:16:35;7.97;;;3.78;;
63945;SDS011;50122;56.330;43.838;2023-04-24T23:19:04;10.93;;;4.03;;
63945;SDS011;50122;56.330;43.838;2023-04-24T23:21:31;8.65;;;3.65;;
63945;SDS011;50122;56.330;43.838;2023-04-24T23:23:58;7.68;;;3.45;;
63945;SDS011;50122;56.330;43.838;2023-04-24T23:26:29;9.18;;;3.60;;
63945;SDS011;50122;56.330;43.838;2023-04-24T23:28:56;9.05;;;3.75;;
63945;SDS011;50122;56.330;43.838;2023-04-24T23:31:22;6.40;;;3.40;;
63945;SDS011;50122;56.330;43.838;2023-04-24T23:33:49;15.85;;;3.60;;
63945;SDS011;50122;56.330;43.838;2023-04-24T23:36:16;7.55;;;3.60;;
63945;SDS011;50122;56.330;43.838;2023-04-24T23:38:43;8.00;;;3.60;;
63945;SDS011;50122;56.330;43.838;2023-04-24T23:41:15;9.18;;;3.80;;
63945;SDS011;50122;56.330;43.838;2023-04-24T23:43:43;8.75;;;3.58;;
63945;SDS011;50122;56.330;43.838;2023-04-24T23:46:09;7.55;;;3.58;;
63945;SDS011;50122;56.330;43.838;2023-04-24T23:48:37;6.32;;;3.20;;
63945;SDS011;50122;56.330;43.838;2023-04-24T23:51:03;10.02;;;3.80;;
63945;SDS011;50122;56.330;43.838;2023-04-24T23:53:31;8.00;;;3.78;;
63945;SDS011;50122;56.330;43.838;2023-04-24T23:55:59;10.82;;;3.58;;
63945;SDS011;50122;56.330;43.838;2023-04-24T23:58:28;6.55;;;3.90;;
